Airfield :
LOGIN :

Register | Disclaimer

   EN    FR    IT 

 










Legend :    VFR   Marginal VFR   IFR   Intensive IFR   Very Intensive IFR
Visi :
Ceiling :
>= 8 km
>= 3000ft
5 to 8 km
1000 to 3000 ft
1500m to 5 km
500 to 1000 ft
800 to 1500m
200 to 500 ft
< 800m
< 200 ft
Symbols :   Thunderstorms  Fog  Heavy snow  Heavy precipitations  Wind > 20 kt
SIGMETs :     Misc.  Thunderstorms  Icing  Turbulence  Mountain Waves  Volcanic Ashes







- Airport Elevation : 56 ft
- IATA code : BZR
- Download approach charts


LFMU - Beziers / Vias

CURRENT METAR :
  • 220900Z AUTO 32006KT 290V020 CAVOK 22/08 Q1022 NOSIG

EXPIRED METARs :
  • 220830Z AUTO 28005KT 230V320 CAVOK 22/08 Q1022 NOSIG
  • 220800Z AUTO 33005KT 290V010 CAVOK 21/08 Q1022 NOSIG
  • 220730Z AUTO 33006KT CAVOK 19/08 Q1022 NOSIG
  • 220700Z AUTO 31005KT CAVOK 19/09 Q1022 NOSIG
  • 220630Z AUTO 31003KT CAVOK 17/12 Q1022 NOSIG

TAF TAF LFMU
Valid from the 22 at 09:00 until the 23 at 09:00 UTC


220800Z 2209/2309 30010KT CAVOK
PROB30
TEMPO 2213/2218 20010KT
ATIS : +33 4 67 90 88 88
No reported NOTAMs for that airfield.



MET'MAP, your aeronautical weather chart ! - Copyright ORBIFLY December 2007 - Disclaimer

ORBIFLY MET'MAP TEAM :

Programming & Development : Alexandra Zaïnal
Concept & Development : Baudouin d'Aumeries
Co-Development & Prog : Marc-Olivier Méhu
Technical & hardware support : Manuel Goepfert

Contact : metmap@orbifly.com




SOURCES & CREDITS :

   NOAA